Time;durP1;ratioP1;P1;durP2;ratioP2;P2;SDS_P1;SDS_P2;PMS_P1;PMS_P2;Temp;Humidity;BMP_temperature;BMP_pressure;BME280_temperature;BME280_humidity;BME280_pressure;Samples;Min_cycle;Max_cycle;Signal;HPM_P1;HPM_P2
2022/09/27 00:00:17;;;;;;;10.70;7.07;;;;;;;6.56;81.06;99474.84;5072450;28;20045;-56
2022/09/27 00:02:44;;;;;;;9.75;7.25;;;;;;;6.32;81.45;99444.53;5071916;28;20025;-55
2022/09/27 00:05:09;;;;;;;12.68;7.00;;;;;;;6.47;81.49;99474.50;5072072;28;20037;-55
2022/09/27 00:07:35;;;;;;;10.85;7.05;;;;;;;6.49;81.27;99484.19;5072353;28;20039;-57
2022/09/27 00:10:01;;;;;;;14.68;7.00;;;;;;;6.43;81.92;99472.19;5072782;28;20024;-51
2022/09/27 00:12:26;;;;;;;10.43;6.97;;;;;;;6.44;81.43;99479.22;5072256;28;20354;-52
2022/09/27 00:14:52;;;;;;;11.68;7.00;;;;;;;6.41;81.37;99488.25;5071974;28;20028;-56
2022/09/27 00:17:17;;;;;;;14.73;7.45;;;;;;;6.39;81.47;99482.19;5071639;28;20446;-51
2022/09/27 00:19:43;;;;;;;8.85;6.60;;;;;;;6.39;81.48;99487.50;5072604;28;20025;-54
2022/09/27 00:22:08;;;;;;;12.35;7.32;;;;;;;6.35;81.45;99480.69;5072308;28;20028;-49
2022/09/27 00:24:34;;;;;;;9.98;6.97;;;;;;;6.17;81.49;99451.75;5072672;28;20048;-51
2022/09/27 00:26:59;;;;;;;9.10;6.55;;;;;;;6.33;81.95;99487.94;5071971;28;20048;-53
2022/09/27 00:29:25;;;;;;;12.43;7.50;;;;;;;6.33;81.83;99487.94;5072372;28;20151;-53
2022/09/27 00:31:50;;;;;;;11.40;6.93;;;;;;;6.30;81.49;99486.31;5072255;28;20332;-52
2022/09/27 00:34:21;;;;;;;13.82;6.80;;;;;;;6.34;81.94;99489.63;5072032;28;20033;-56
2022/09/27 00:36:47;;;;;;;10.00;7.43;;;;;;;6.30;81.74;99493.47;5071687;28;20051;-55
2022/09/27 00:39:14;;;;;;;11.48;7.65;;;;;;;6.12;81.39;99461.84;5072255;28;20111;-54
2022/09/27 00:41:40;;;;;;;12.82;6.97;;;;;;;6.29;81.51;99484.63;5072126;28;20036;-56
2022/09/27 00:44:27;;;;;;;12.05;6.63;;;;;;;6.44;81.89;99496.00;5071642;28;20025;-60
2022/09/27 00:47:02;;;;;;;15.00;8.65;;;;;;;6.50;81.88;99504.50;5074099;28;20036;-52
2022/09/27 00:49:35;;;;;;;13.20;8.15;;;;;;;6.56;82.21;99496.97;5076168;28;20064;-55
2022/09/27 00:52:11;;;;;;;12.50;7.50;;;;;;;6.62;81.77;99487.72;5075660;28;20094;-55
2022/09/27 00:54:41;;;;;;;8.95;6.80;;;;;;;6.74;81.96;99496.66;5076102;28;20469;-58
2022/09/27 00:57:07;;;;;;;11.35;7.78;;;;;;;6.81;81.64;99489.09;5075542;28;20093;-58
2022/09/27 00:59:37;;;;;;;12.50;8.00;;;;;;;6.90;81.36;99507.06;5076224;28;20040;-54
2022/09/27 01:02:05;;;;;;;25.23;8.88;;;;;;;6.96;81.38;99492.47;5075964;28;20029;-55
2022/09/27 01:04:32;;;;;;;23.13;8.50;;;;;;;6.98;81.17;99499.38;5074627;28;20077;-59
2022/09/27 01:06:58;;;;;;;26.92;8.57;;;;;;;6.88;81.31;99469.06;5075331;28;20036;-51
2022/09/27 01:09:24;;;;;;;11.55;7.63;;;;;;;7.02;81.04;99492.91;5075575;28;20082;-50
2022/09/27 01:12:20;;;;;;;33.17;8.95;;;;;;;7.21;81.13;99499.53;5075515;28;20331;-50
2022/09/27 01:14:48;;;;;;;20.75;8.23;;;;;;;7.18;80.82;99483.78;5073551;28;20074;-52
2022/09/27 01:17:14;;;;;;;12.00;6.93;;;;;;;7.22;81.03;99485.28;5075078;28;20049;-50
2022/09/27 01:20:04;;;;;;;12.75;7.45;;;;;;;7.36;81.16;99494.09;5074362;28;20021;-49
2022/09/27 01:22:48;;;;;;;13.38;8.45;;;;;;;7.32;80.94;99489.00;5075436;28;20217;-51
2022/09/27 01:26:01;;;;;;;15.50;8.18;;;;;;;7.52;80.97;99491.16;5075296;28;20044;-51
2022/09/27 01:29:06;;;;;;;20.38;8.63;;;;;;;7.56;80.27;99495.28;4994224;28;20499;-50
2022/09/27 01:31:43;;;;;;;12.43;7.60;;;;;;;7.53;80.37;99503.50;5021613;28;20590;-50
2022/09/27 01:34:20;;;;;;;15.63;8.57;;;;;;;7.54;80.05;99494.53;5055440;28;20029;-54
2022/09/27 01:37:18;;;;;;;39.47;9.65;;;;;;;7.55;80.39;99486.47;5066079;28;20032;-54
2022/09/27 01:40:10;;;;;;;25.88;10.07;;;;;;;7.65;79.84;99483.09;5074150;28;20141;-53
2022/09/27 01:42:38;;;;;;;28.95;9.30;;;;;;;7.52;79.58;99488.47;5075231;28;20028;-52
2022/09/27 01:45:20;;;;;;;29.70;9.25;;;;;;;7.45;79.51;99480.09;5075053;28;20458;-53
2022/09/27 01:47:53;;;;;;;25.92;8.60;;;;;;;7.47;79.67;99478.16;5074699;28;20112;-51
2022/09/27 01:50:25;;;;;;;44.83;10.35;;;;;;;7.44;79.59;99481.91;5074627;28;20048;-53
2022/09/27 01:53:00;;;;;;;29.38;8.93;;;;;;;7.42;79.79;99483.84;5074872;28;20173;-54
2022/09/27 01:55:32;;;;;;;34.20;9.70;;;;;;;7.42;79.94;99486.50;5074614;28;20024;-51
2022/09/27 01:58:05;;;;;;;24.42;8.65;;;;;;;7.43;79.83;99482.00;5053750;28;20048;-52
2022/09/27 02:00:32;;;;;;;64.07;10.35;;;;;;;7.36;79.68;99473.66;5074293;28;20064;-54
2022/09/27 02:03:04;;;;;;;30.42;9.65;;;;;;;7.45;80.00;99485.41;5074793;28;20025;-53
2022/09/27 02:05:38;;;;;;;43.95;9.20;;;;;;;7.39;80.06;99461.91;5074629;28;20035;-56
2022/09/27 02:08:13;;;;;;;107.63;10.30;;;;;;;7.54;79.74;99482.09;5073335;28;20033;-57
2022/09/27 02:10:42;;;;;;;85.70;9.65;;;;;;;7.50;79.52;99475.28;5074644;28;20514;-56
2022/09/27 02:13:22;;;;;;;42.40;8.60;;;;;;;7.57;79.64;99478.34;5075113;28;20033;-52
2022/09/27 02:16:05;;;;;;;46.95;8.95;;;;;;;7.57;79.88;99479.19;5074396;28;20029;-56
2022/09/27 02:18:50;;;;;;;61.28;9.65;;;;;;;7.64;79.77;99482.25;5073837;28;20036;-55
2022/09/27 02:21:18;;;;;;;37.90;8.27;;;;;;;7.63;79.25;99482.38;5071787;28;20415;-55
2022/09/27 02:23:49;;;;;;;54.03;8.23;;;;;;;7.59;79.25;99482.59;5055596;28;20190;-54
2022/09/27 02:26:23;;;;;;;28.27;7.72;;;;;;;7.63;79.57;99495.69;5054451;28;20060;-54
2022/09/27 02:29:10;;;;;;;46.80;8.13;;;;;;;7.56;79.13;99485.50;5059188;28;20482;-54
2022/09/27 02:31:35;;;;;;;71.00;8.82;;;;;;;7.56;79.11;99482.81;5066245;28;20135;-54
2022/09/27 02:34:13;;;;;;;45.65;7.65;;;;;;;7.61;79.02;99487.81;5074286;28;20178;-56
2022/09/27 02:36:39;;;;;;;62.10;7.60;;;;;;;7.55;78.70;99483.78;5074275;28;20036;-54
2022/09/27 02:39:05;;;;;;;93.65;9.43;;;;;;;7.49;78.49;99486.91;5073498;28;20358;-54
2022/09/27 02:41:30;;;;;;;60.03;8.55;;;;;;;7.47;78.48;99489.69;5074132;28;20033;-56
2022/09/27 02:44:04;;;;;;;52.00;7.57;;;;;;;7.51;79.20;99497.44;5073821;28;20032;-53
2022/09/27 02:46:51;;;;;;;45.65;7.20;;;;;;;7.57;79.19;99497.84;5073996;28;20415;-55
2022/09/27 02:49:41;;;;;;;33.28;7.70;;;;;;;7.58;79.42;99490.69;5073168;28;20045;-52
2022/09/27 02:52:09;;;;;;;50.70;8.00;;;;;;;7.50;78.97;99493.06;5073829;28;20063;-51
2022/09/27 02:54:41;;;;;;;59.80;8.45;;;;;;;7.30;79.57;99466.06;5073095;28;20029;-50
2022/09/27 02:57:35;;;;;;;77.50;7.97;;;;;;;7.55;79.34;99494.44;5073634;28;20046;-51
2022/09/27 03:00:16;;;;;;;50.22;7.50;;;;;;;7.53;78.98;99498.19;5073075;28;20021;-54
2022/09/27 03:03:13;;;;;;;50.78;7.38;;;;;;;7.60;79.31;99496.78;5073727;28;20150;-55
2022/09/27 03:05:48;;;;;;;;;;;;;;;7.83;78.95;99503.06;5073449;28;20520;-53
2022/09/27 03:08:14;;;;;;;58.53;7.47;;;;;;;7.56;78.47;99498.81;5072450;28;20357;-54
2022/09/27 03:10:39;;;;;;;21.35;6.97;;;;;;;7.53;78.53;99498.19;5073171;28;20119;-53
2022/09/27 03:13:05;;;;;;;36.90;6.40;;;;;;;7.48;78.97;99501.19;5073365;28;20474;-54
2022/09/27 03:15:31;;;;;;;22.60;6.82;;;;;;;7.42;78.90;99488.31;5073138;28;20036;-55
2022/09/27 03:17:56;;;;;;;41.22;7.70;;;;;;;7.49;79.19;99500.22;5072883;28;20051;-56
2022/09/27 03:20:22;;;;;;;25.83;7.38;;;;;;;7.47;79.36;99499.47;5073202;28;20034;-53
2022/09/27 03:22:47;;;;;;;28.63;7.30;;;;;;;7.46;79.31;99498.63;5072994;28;20028;-56
2022/09/27 03:25:13;;;;;;;23.77;7.20;;;;;;;7.49;79.60;99494.91;5073623;28;20094;-50
2022/09/27 03:27:38;;;;;;;32.10;7.75;;;;;;;7.50;79.40;99504.59;5072806;28;20036;-54
2022/09/27 03:30:05;;;;;;;32.78;8.52;;;;;;;7.52;79.42;99517.78;5072841;28;20486;-54
2022/09/27 03:32:30;;;;;;;20.77;7.90;;;;;;;7.51;79.44;99514.28;5073130;28;20443;-54
2022/09/27 03:34:56;;;;;;;22.58;8.70;;;;;;;7.53;79.53;99515.03;5072942;28;20063;-56
2022/09/27 03:37:22;;;;;;;19.92;9.00;;;;;;;7.40;79.53;99484.91;5072232;28;20446;-52
2022/09/27 03:39:47;;;;;;;71.45;9.80;;;;;;;7.51;79.27;99495.66;5072628;28;20385;-55
2022/09/27 03:42:13;;;;;;;47.40;9.25;;;;;;;7.63;79.33;99514.34;5073092;28;20123;-52
2022/09/27 03:44:38;;;;;;;18.33;8.63;;;;;;;7.65;79.36;99507.94;5072432;28;20028;-55
2022/09/27 03:47:03;;;;;;;37.00;8.82;;;;;;;7.68;79.29;99506.84;5072608;28;20025;-56
2022/09/27 03:49:31;;;;;;;47.47;9.07;;;;;;;7.72;79.17;99503.03;5072507;28;20130;-56
2022/09/27 03:51:57;;;;;;;52.00;9.23;;;;;;;7.73;79.21;99510.06;5072756;28;20032;-54
2022/09/27 03:54:22;;;;;;;26.58;8.55;;;;;;;7.73;79.61;99504.72;5072559;28;20043;-56
2022/09/27 03:56:48;;;;;;;41.17;8.73;;;;;;;7.80;79.24;99518.41;5072551;28;20043;-57
2022/09/27 03:59:13;;;;;;;25.75;8.30;;;;;;;7.80;78.85;99513.94;5071864;28;20109;-52
2022/09/27 04:01:39;;;;;;;56.95;8.85;;;;;;;7.75;78.41;99508.13;5072434;28;20092;-54
2022/09/27 04:04:04;;;;;;;54.20;8.82;;;;;;;7.70;78.51;99512.91;5072270;28;20032;-56
2022/09/27 04:06:30;;;;;;;45.22;8.75;;;;;;;7.67;78.25;99514.00;5072561;28;20039;-59
2022/09/27 04:08:56;;;;;;;30.17;8.23;;;;;;;7.52;78.26;99492.00;5072280;28;20025;-58
2022/09/27 04:11:23;;;;;;;49.83;8.52;;;;;;;7.72;78.17;99519.00;5072672;28;20047;-56
2022/09/27 04:13:49;;;;;;;59.50;8.70;;;;;;;7.73;78.13;99523.38;5072008;28;20028;-55
2022/09/27 04:16:15;;;;;;;65.63;8.20;;;;;;;7.80;77.98;99526.41;5072559;28;20036;-52
2022/09/27 04:18:41;;;;;;;79.15;9.13;;;;;;;7.75;77.61;99524.94;5071923;28;20025;-55
2022/09/27 04:21:07;;;;;;;63.92;8.77;;;;;;;7.75;77.79;99516.13;5071878;28;20037;-54
2022/09/27 04:23:32;;;;;;;57.80;9.38;;;;;;;7.85;77.63;99524.28;5072376;28;20109;-52
2022/09/27 04:25:58;;;;;;;85.03;9.93;;;;;;;7.72;77.39;99497.69;5072162;28;20064;-53
2022/09/27 04:28:23;;;;;;;82.65;8.25;;;;;;;7.91;77.48;99518.47;5071937;28;20047;-52
2022/09/27 04:30:49;;;;;;;47.20;9.18;;;;;;;7.98;77.31;99521.56;5072482;28;20036;-65
2022/09/27 04:33:14;;;;;;;104.80;9.20;;;;;;;8.04;77.22;99521.09;5070885;28;20028;-48
2022/09/27 04:38:24;;;;;;;85.80;8.27;;;;;;;8.21;76.22;99516.31;5071880;28;20362;-51
2022/09/27 04:40:50;;;;;;;59.15;7.93;;;;;;;8.31;76.20;99522.63;5072035;28;20040;-58
2022/09/27 04:43:16;;;;;;;78.22;8.52;;;;;;;8.50;75.94;99519.41;5072272;28;20373;-52
2022/09/27 04:45:44;;;;;;;29.65;7.90;;;;;;;8.64;75.41;99520.19;5071842;28;20048;-48
2022/09/27 04:48:10;;;;;;;73.85;9.25;;;;;;;8.82;74.70;99523.22;5071814;28;20028;-52
2022/09/27 04:50:36;;;;;;;17.88;7.85;;;;;;;9.00;74.61;99521.78;5071844;28;20033;-51
2022/09/27 04:53:02;;;;;;;34.72;7.90;;;;;;;9.19;73.50;99531.03;5072031;28;20039;-52
2022/09/27 04:55:28;;;;;;;33.70;7.72;;;;;;;9.32;73.28;99531.72;5072333;28;20109;-53
2022/09/27 04:57:53;;;;;;;24.67;9.00;;;;;;;9.42;72.68;99536.34;5071578;28;20024;-49
2022/09/27 05:00:19;;;;;;;26.20;7.57;;;;;;;9.33;72.13;99503.19;5072046;28;20032;-63
2022/09/27 05:02:47;;;;;;;32.45;8.07;;;;;;;9.59;71.67;99537.66;5070853;28;20028;-52
2022/09/27 05:05:13;;;;;;;16.45;7.75;;;;;;;9.67;71.29;99539.69;5071839;28;20032;-54
2022/09/27 05:07:39;;;;;;;12.80;7.60;;;;;;;9.79;71.32;99535.19;5071650;28;20020;-59
2022/09/27 05:10:06;;;;;;;21.33;8.75;;;;;;;9.90;70.31;99535.13;5071745;28;20032;-54
2022/09/27 05:12:31;;;;;;;12.13;7.50;;;;;;;10.08;70.01;99532.75;5071940;28;20039;-57
2022/09/27 05:14:56;;;;;;;14.93;7.70;;;;;;;9.95;69.43;99481.25;5072088;28;20028;-57
2022/09/27 05:17:22;;;;;;;16.65;8.50;;;;;;;10.40;69.11;99533.69;5071232;28;20029;-57
2022/09/27 05:19:48;;;;;;;13.20;7.80;;;;;;;10.33;68.43;99511.94;5072073;28;20064;-56
2022/09/27 05:22:14;;;;;;;12.60;8.60;;;;;;;10.46;68.82;99528.72;5071485;28;20032;-53
2022/09/27 05:24:40;;;;;;;14.13;8.95;;;;;;;10.55;68.51;99524.41;5071221;28;20087;-57
2022/09/27 05:27:08;;;;;;;11.27;7.70;;;;;;;10.81;68.22;99521.31;5070960;28;20052;-56
2022/09/27 05:29:34;;;;;;;11.05;7.60;;;;;;;11.14;67.13;99526.53;5070482;28;20029;-54
2022/09/27 05:32:00;;;;;;;11.80;8.05;;;;;;;11.62;65.98;99523.16;5070292;28;20165;-57
2022/09/27 05:34:26;;;;;;;11.70;8.50;;;;;;;12.75;63.72;99521.84;5074671;28;20032;-57
2022/09/27 05:36:51;;;;;;;13.32;7.82;;;;;;;15.93;55.11;99484.53;5073328;28;20480;-59
2022/09/27 05:39:17;;;;;;;9.38;7.18;;;;;;;19.72;45.35;99506.84;5074573;28;20077;-56
2022/09/27 05:41:45;;;;;;;9.77;7.18;;;;;;;21.40;40.09;99496.47;5073893;28;20093;-54
2022/09/27 05:44:12;;;;;;;9.93;7.13;;;;;;;23.70;35.56;99501.69;5073940;28;20020;-53
2022/09/27 05:46:38;;;;;;;9.27;7.03;;;;;;;25.80;31.50;99504.19;5074813;28;20031;-56
2022/09/27 05:49:04;;;;;;;7.85;6.97;;;;;;;27.49;28.59;99505.75;5074010;28;20379;-55
2022/09/27 05:51:30;;;;;;;13.68;11.10;;;;;;;28.90;26.31;99492.53;5073879;28;20044;-56
2022/09/27 05:53:55;;;;;;;9.07;6.95;;;;;;;30.18;24.20;99497.94;5074022;28;20447;-54
2022/09/27 05:56:21;;;;;;;8.68;6.63;;;;;;;31.14;23.03;99494.47;5075159;28;20039;-56
2022/09/27 05:58:46;;;;;;;7.82;6.25;;;;;;;30.96;22.77;99487.47;5074296;28;20100;-55
2022/09/27 06:01:12;;;;;;;7.20;6.43;;;;;;;31.12;22.45;99473.75;5074767;28;20032;-55
2022/09/27 06:03:39;;;;;;;9.85;8.55;;;;;;;30.31;23.05;99487.53;5074650;28;20040;-57
2022/09/27 06:06:06;;;;;;;10.80;8.93;;;;;;;30.79;22.75;99491.25;5074988;28;20477;-56
2022/09/27 06:08:36;;;;;;;11.15;10.05;;;;;;;32.34;21.08;99477.09;5074306;28;20036;-54
2022/09/27 06:11:04;;;;;;;12.80;9.30;;;;;;;32.69;19.99;99466.25;5074203;28;20127;-54
2022/09/27 06:13:29;;;;;;;8.60;7.38;;;;;;;30.11;22.19;99472.47;5074757;28;20032;-56
2022/09/27 06:15:55;;;;;;;10.85;8.25;;;;;;;27.39;25.66;99479.97;5074713;28;20039;-62
2022/09/27 06:18:20;;;;;;;9.82;7.53;;;;;;;25.20;28.82;99483.88;5074470;28;20331;-57
2022/09/27 06:20:46;;;;;;;9.45;8.40;;;;;;;23.23;31.88;99475.38;5074446;28;20094;-57
2022/09/27 06:23:20;;;;;;;13.18;8.55;;;;;;;21.78;35.31;99490.56;5074498;28;20040;-54
2022/09/27 06:25:46;;;;;;;12.43;8.68;;;;;;;20.33;36.81;99483.88;5074623;28;20037;-53
2022/09/27 06:28:12;;;;;;;11.60;9.27;;;;;;;19.22;39.45;99474.94;5073834;28;20094;-56
2022/09/27 06:30:40;;;;;;;12.43;9.32;;;;;;;18.55;41.55;99492.94;5073999;28;20071;-55
2022/09/27 06:33:08;;;;;;;16.92;9.23;;;;;;;17.94;43.12;99486.47;5074233;28;20115;-54
2022/09/27 06:35:34;;;;;;;14.65;9.55;;;;;;;17.50;44.00;99493.34;5073576;28;20043;-56
2022/09/27 06:38:06;;;;;;;13.73;9.48;;;;;;;17.04;44.56;99464.31;5073107;28;20410;-54
2022/09/27 06:40:31;;;;;;;12.23;8.00;;;;;;;16.72;44.47;99480.44;5072319;28;20467;-54
2022/09/27 06:43:04;;;;;;;13.00;6.85;;;;;;;16.63;45.36;99481.44;5073290;28;20035;-53
2022/09/27 06:45:31;;;;;;;11.20;7.43;;;;;;;16.38;45.64;99476.06;5070835;28;20028;-54
2022/09/27 06:48:01;;;;;;;9.90;8.55;;;;;;;17.04;45.27;99467.84;5073001;28;20020;-62
2022/09/27 06:50:28;;;;;;;10.10;7.10;;;;;;;20.78;37.62;99465.38;5073585;28;20048;-60
2022/09/27 06:52:54;;;;;;;9.70;7.18;;;;;;;25.37;29.27;99452.03;5073399;28;20069;-57
2022/09/27 06:55:20;;;;;;;9.95;7.03;;;;;;;29.31;23.93;99448.97;5072299;28;20412;-49
2022/09/27 07:00:31;;;;;;;12.25;7.63;;;;;;;31.22;21.34;99459.97;5072242;28;20044;-52
2022/09/27 07:02:59;;;;;;;8.93;7.68;;;;;;;33.34;18.97;99456.34;5073347;28;20033;-53
2022/09/27 07:05:29;;;;;;;12.32;8.00;;;;;;;35.20;17.10;99471.50;5073314;28;20037;-49
2022/09/27 07:07:56;;;;;;;10.43;7.50;;;;;;;32.76;18.52;99464.00;5072886;28;20443;-55
2022/09/27 07:10:26;;;;;;;8.43;7.55;;;;;;;29.85;21.44;99472.19;5072603;28;20471;-54
2022/09/27 07:12:52;;;;;;;8.73;7.72;;;;;;;27.20;23.89;99463.66;5053105;28;20025;-55
2022/09/27 07:15:22;;;;;;;10.68;8.15;;;;;;;24.85;27.48;99487.22;5055534;28;20036;-51
2022/09/27 07:17:57;;;;;;;12.05;8.30;;;;;;;23.15;30.48;99482.97;5072589;28;20815;-50
2022/09/27 07:20:25;;;;;;;10.25;8.10;;;;;;;21.58;32.58;99480.41;5073001;28;20466;-54
2022/09/27 07:22:51;;;;;;;10.18;7.97;;;;;;;21.84;32.24;99481.56;5073045;28;20024;-51
2022/09/27 07:25:16;;;;;;;12.30;7.55;;;;;;;23.38;29.73;99477.06;5072173;28;20319;-53
2022/09/27 07:27:42;;;;;;;8.15;7.35;;;;;;;23.87;29.34;99473.84;5071092;28;20020;-54
2022/09/27 07:30:10;;;;;;;10.75;8.23;;;;;;;23.71;28.98;99478.75;5071669;28;20352;-51
2022/09/27 07:32:35;;;;;;;11.68;8.25;;;;;;;22.90;30.72;99475.47;5073071;28;20450;-54
2022/09/27 07:35:02;;;;;;;9.50;7.57;;;;;;;22.01;32.21;99473.81;5072379;28;20029;-52
2022/09/27 07:37:33;;;;;;;11.38;8.07;;;;;;;21.90;32.52;99472.56;5072610;28;20068;-60
2022/09/27 07:39:59;;;;;;;10.40;8.30;;;;;;;21.47;32.76;99457.34;5072859;28;20084;-60
2022/09/27 07:42:27;;;;;;;9.07;8.18;;;;;;;21.79;32.29;99470.44;5072523;28;20024;-52
2022/09/27 07:44:53;;;;;;;10.85;7.82;;;;;;;22.35;31.23;99465.66;5072626;28;20119;-56
2022/09/27 07:47:19;;;;;;;10.80;7.93;;;;;;;22.70;31.94;99468.19;5070279;28;20028;-55
2022/09/27 07:49:44;;;;;;;11.85;8.40;;;;;;;22.89;30.62;99468.34;5072451;28;20098;-60
2022/09/27 07:52:09;;;;;;;10.90;9.75;;;;;;;22.45;31.90;99468.81;5072469;28;20044;-60
2022/09/27 07:54:35;;;;;;;16.10;9.98;;;;;;;21.75;32.67;99466.47;5072359;28;20028;-60
2022/09/27 07:57:02;;;;;;;10.55;8.57;;;;;;;21.04;32.84;99461.16;5070837;28;20097;-59
2022/09/27 07:59:28;;;;;;;13.68;9.32;;;;;;;20.44;33.14;99474.34;5072711;28;20185;-55
2022/09/27 08:01:54;;;;;;;11.95;8.23;;;;;;;19.66;34.75;99470.47;5072306;28;20498;-60
2022/09/27 08:04:20;;;;;;;11.02;9.20;;;;;;;19.30;36.27;99468.56;5072000;28;20036;-59
2022/09/27 08:06:45;;;;;;;18.80;11.40;;;;;;;19.24;38.09;99467.44;5072430;28;20170;-59
2022/09/27 08:09:11;;;;;;;15.20;10.93;;;;;;;19.20;36.59;99471.56;5070342;28;20021;-59
2022/09/27 08:11:36;;;;;;;15.35;10.15;;;;;;;18.88;36.25;99444.63;5068601;28;20401;-58
2022/09/27 08:14:03;;;;;;;9.77;8.77;;;;;;;18.83;36.60;99467.94;5070205;28;20579;-60
2022/09/27 08:16:29;;;;;;;10.55;8.95;;;;;;;18.58;37.12;99476.31;5071103;28;20466;-59
2022/09/27 08:18:54;;;;;;;10.93;8.82;;;;;;;18.55;37.08;99473.94;5071468;28;20097;-58
2022/09/27 08:21:20;;;;;;;11.07;8.45;;;;;;;18.65;37.18;99472.66;5071877;28;20048;-58
2022/09/27 08:23:45;;;;;;;15.02;8.98;;;;;;;18.84;36.29;99472.31;5071905;28;20063;-57
2022/09/27 08:26:11;;;;;;;12.10;8.88;;;;;;;18.77;36.86;99469.50;5071750;28;20047;-54
2022/09/27 08:28:36;;;;;;;12.23;9.40;;;;;;;18.71;36.78;99465.66;5070554;28;20028;-53
2022/09/27 08:31:01;;;;;;;13.93;9.55;;;;;;;18.62;37.49;99461.38;5071696;28;20041;-62
2022/09/27 08:33:27;;;;;;;10.43;8.25;;;;;;;18.53;37.54;99459.75;5054664;28;20033;-55
2022/09/27 08:35:52;;;;;;;15.07;8.48;;;;;;;18.48;37.33;99452.19;5071771;28;20028;-60
2022/09/27 08:38:18;;;;;;;13.68;8.75;;;;;;;18.37;37.89;99453.47;5072445;28;20045;-54
2022/09/27 08:40:58;;;;;;;14.40;8.85;;;;;;;18.28;38.80;99459.97;5072198;28;20033;-58
2022/09/27 08:43:29;;;;;;;11.88;7.32;;;;;;;18.32;38.20;99464.84;5071402;28;20055;-53
2022/09/27 08:46:18;;;;;;;7.90;7.20;;;;;;;18.29;38.03;99470.66;5071448;28;20035;-57
2022/09/27 08:48:49;;;;;;;12.05;6.90;;;;;;;18.00;37.59;99463.22;5071681;28;20344;-58
2022/09/27 08:51:15;;;;;;;9.02;6.88;;;;;;;17.73;38.05;99446.50;5072129;28;20036;-58
2022/09/27 08:53:53;;;;;;;8.13;7.22;;;;;;;17.82;38.22;99461.66;5071482;28;20032;-59
2022/09/27 08:56:21;;;;;;;8.40;6.78;;;;;;;17.47;38.59;99455.81;5070692;28;20127;-61
2022/09/27 08:58:57;;;;;;;10.07;6.78;;;;;;;17.21;39.13;99460.50;5071156;28;20141;-58
2022/09/27 09:01:23;;;;;;;10.10;7.18;;;;;;;16.78;39.59;99452.69;5071757;28;20111;-55
2022/09/27 09:03:54;;;;;;;9.85;7.18;;;;;;;16.41;40.81;99462.25;5071198;28;20052;-57
2022/09/27 09:06:26;;;;;;;10.30;6.43;;;;;;;15.95;41.44;99459.22;5071592;28;20032;-58
2022/09/27 09:09:10;;;;;;;9.63;6.20;;;;;;;15.79;41.93;99461.72;5075093;28;20037;-58
2022/09/27 09:15:23;;;;;;;8.77;7.22;;;;;;;15.39;43.07;99465.16;5075375;28;20036;-60
2022/09/27 09:18:25;;;;;;;15.17;7.67;;;;;;;15.44;43.22;99457.44;5075414;28;20024;-58
2022/09/27 09:21:06;;;;;;;14.13;7.68;;;;;;;15.43;43.13;99455.72;5075319;28;20051;-58
2022/09/27 09:23:46;;;;;;;14.75;8.85;;;;;;;15.53;42.68;99460.97;5074817;28;20124;-57
2022/09/27 09:26:12;;;;;;;11.07;7.45;;;;;;;15.38;43.50;99458.06;5074389;28;20458;-54
2022/09/27 09:28:59;;;;;;;8.50;7.38;;;;;;;15.64;42.69;99449.88;5074890;28;20064;-57
2022/09/27 09:31:36;;;;;;;12.25;8.25;;;;;;;15.62;42.76;99463.50;5075026;28;20036;-57
2022/09/27 09:34:29;;;;;;;11.65;7.97;;;;;;;15.59;42.66;99450.34;5075476;28;20037;-60
2022/09/27 09:37:16;;;;;;;14.50;7.82;;;;;;;15.56;42.69;99450.69;5073986;28;20078;-60
2022/09/27 09:39:47;;;;;;;10.45;7.90;;;;;;;15.58;42.65;99455.94;5075104;28;20032;-59
2022/09/27 09:42:24;;;;;;;12.18;7.57;;;;;;;15.81;42.83;99455.31;5074187;28;20921;-58
2022/09/27 09:45:09;;;;;;;9.18;5.93;;;;;;;16.19;41.90;99450.25;5074578;28;20032;-60
2022/09/27 09:47:39;;;;;;;11.48;7.60;;;;;;;16.32;41.40;99447.03;5074547;28;20032;-59
2022/09/27 09:50:17;;;;;;;9.05;6.75;;;;;;;16.39;41.81;99452.59;5074381;28;20513;-57
2022/09/27 09:52:51;;;;;;;12.45;6.35;;;;;;;16.47;41.21;99452.59;5066315;28;20100;-60
2022/09/27 09:55:21;;;;;;;9.65;6.47;;;;;;;16.34;40.98;99445.00;5065848;28;20039;-58
2022/09/27 09:58:25;;;;;;;10.40;6.93;;;;;;;16.04;41.89;99453.66;5066667;28;20036;-62
2022/09/27 10:00:55;;;;;;;9.23;6.00;;;;;;;15.80;41.91;99457.13;5011035;28;20052;-61
2022/09/27 10:03:23;;;;;;;12.07;6.45;;;;;;;15.33;42.85;99450.47;5010155;28;20097;-60
2022/09/27 10:05:48;;;;;;;11.10;6.35;;;;;;;15.10;43.61;99444.81;5012616;28;20041;-55
2022/09/27 10:08:19;;;;;;;11.80;6.38;;;;;;;14.90;43.80;99447.78;5012141;28;20045;-58
2022/09/27 10:10:44;;;;;;;8.15;6.05;;;;;;;14.77;43.85;99443.69;5011797;28;20064;-54
2022/09/27 10:13:16;;;;;;;7.20;5.97;;;;;;;14.76;43.60;99442.00;5011478;28;20065;-52
2022/09/27 10:15:42;;;;;;;9.50;6.43;;;;;;;14.78;43.91;99449.91;5011652;28;20042;-50
2022/09/27 10:18:16;;;;;;;10.07;6.72;;;;;;;14.60;44.70;99444.56;5010933;28;20045;-53
2022/09/27 10:20:48;;;;;;;9.02;6.53;;;;;;;14.47;45.09;99447.69;4995145;28;20037;-55
2022/09/27 10:23:18;;;;;;;9.43;6.00;;;;;;;14.37;45.29;99442.41;5012485;28;20040;-57
2022/09/27 10:25:59;;;;;;;13.15;6.38;;;;;;;14.47;45.15;99443.16;5012854;28;20045;-58
2022/09/27 10:28:41;;;;;;;8.05;6.00;;;;;;;14.46;45.00;99446.00;5012119;28;20077;-54
2022/09/27 10:31:16;;;;;;;7.35;5.70;;;;;;;14.55;45.39;99446.91;5025273;28;20049;-51
2022/09/27 10:33:56;;;;;;;;;;;;;;;15.13;43.88;99450.75;5053609;28;20127;-55
2022/09/27 10:36:37;;;;;;;13.75;5.97;;;;;;;14.87;44.36;99435.47;5052751;28;19974;-50
2022/09/27 10:39:05;;;;;;;9.75;5.60;;;;;;;14.88;44.93;99439.00;5054201;28;20117;-53
2022/09/27 10:41:32;;;;;;;7.15;5.68;;;;;;;15.16;44.53;99431.53;5068247;28;20032;-51
2022/09/27 10:44:23;;;;;;;7.93;5.43;;;;;;;15.53;43.52;99428.59;5071774;28;20115;-51
2022/09/27 10:46:52;;;;;;;6.78;4.75;;;;;;;15.20;43.60;99422.13;5065232;28;20111;-53
2022/09/27 10:49:25;;;;;;;7.55;5.05;;;;;;;14.96;43.99;99428.28;5070872;28;20067;-57
2022/09/27 10:51:56;;;;;;;8.30;4.78;;;;;;;14.71;44.78;99425.47;5073835;28;20068;-51
2022/09/27 10:54:27;;;;;;;7.32;4.80;;;;;;;14.54;44.92;99431.75;5073708;28;20435;-56
2022/09/27 10:57:05;;;;;;;9.05;5.03;;;;;;;14.62;44.83;99426.38;5061089;28;20041;-56
2022/09/27 10:59:34;;;;;;;6.25;4.80;;;;;;;15.04;42.88;99425.59;5072751;28;20068;-55
2022/09/27 11:02:01;;;;;;;6.65;3.50;;;;;;;15.24;42.01;99419.09;5072561;28;20044;-51
2022/09/27 11:04:32;;;;;;;6.32;3.40;;;;;;;15.48;41.40;99416.44;5072826;28;20375;-54
2022/09/27 11:07:18;;;;;;;3.55;2.60;;;;;;;15.75;40.89;99419.03;5073423;28;20024;-53
2022/09/27 11:09:58;;;;;;;3.90;2.90;;;;;;;15.75;40.55;99421.72;5072828;28;20032;-54
2022/09/27 11:12:24;;;;;;;7.03;2.90;;;;;;;15.58;40.67;99418.16;5072941;28;20033;-55
2022/09/27 11:15:02;;;;;;;5.88;3.30;;;;;;;15.43;40.72;99426.03;5071697;28;20097;-56
2022/09/27 11:17:42;;;;;;;6.30;3.15;;;;;;;15.20;41.52;99424.81;5071654;28;20041;-57
2022/09/27 11:20:15;;;;;;;3.88;3.28;;;;;;;15.02;42.09;99410.59;5062170;28;20127;-54
2022/09/27 11:23:00;;;;;;;4.05;2.78;;;;;;;14.97;42.33;99408.41;5068376;28;20467;-54
2022/09/27 11:25:47;;;;;;;3.85;2.40;;;;;;;14.92;41.95;99416.97;5069205;28;20035;-52
2022/09/27 11:28:19;;;;;;;5.55;2.80;;;;;;;14.86;41.76;99404.16;5071794;28;20024;-55
2022/09/27 11:31:06;;;;;;;6.80;3.38;;;;;;;14.88;42.17;99409.34;5072344;28;20096;-57
2022/09/27 11:34:03;;;;;;;4.28;2.90;;;;;;;14.98;41.47;99396.63;5072367;28;20101;-57
2022/09/27 11:36:46;;;;;;;7.35;3.88;;;;;;;15.04;42.34;99405.88;5070880;28;20109;-53
2022/09/27 11:39:25;;;;;;;5.05;3.42;;;;;;;14.98;42.54;99393.91;5071784;28;20036;-56
2022/09/27 11:41:58;;;;;;;6.22;3.28;;;;;;;14.81;42.09;99397.53;5071184;28;20040;-55
2022/09/27 11:44:36;;;;;;;8.20;4.15;;;;;;;14.61;43.20;99397.75;5071410;28;20062;-57
2022/09/27 11:47:44;;;;;;;5.95;3.85;;;;;;;14.48;43.96;99407.13;5070950;28;20029;-57
2022/09/27 11:50:31;;;;;;;11.52;3.85;;;;;;;14.16;44.27;99399.69;5071641;28;20059;-57
2022/09/27 11:53:23;;;;;;;9.68;4.05;;;;;;;13.84;44.96;99395.72;5070913;28;20125;-61
2022/09/27 11:56:23;;;;;;;5.70;3.80;;;;;;;13.86;45.20;99399.97;5058932;28;20127;-56
2022/09/27 11:58:48;;;;;;;7.35;3.85;;;;;;;13.77;45.31;99392.84;5071057;28;20124;-57